sensor_id;sensor_type;location;lat;lon;timestamp;temperature;humidity
46608;DHT22;32330;51.936;7.184;2023-04-03T03:46:17;1.80;84.70
46608;DHT22;32330;51.936;7.184;2023-04-03T03:48:44;1.80;83.00
46608;DHT22;32330;51.936;7.184;2023-04-03T03:51:11;1.80;83.80
46608;DHT22;32330;51.936;7.184;2023-04-03T03:53:38;1.80;85.60
46608;DHT22;32330;51.936;7.184;2023-04-03T03:56:09;1.80;86.30
46608;DHT22;32330;51.936;7.184;2023-04-03T03:58:38;1.70;87.20
46608;DHT22;32330;51.936;7.184;2023-04-03T04:01:06;1.70;87.70
46608;DHT22;32330;51.936;7.184;2023-04-03T04:03:40;1.70;86.60
46608;DHT22;32330;51.936;7.184;2023-04-03T04:06:09;1.70;88.70
46608;DHT22;32330;51.936;7.184;2023-04-03T04:08:37;1.60;90.00
46608;DHT22;32330;51.936;7.184;2023-04-03T04:11:06;1.60;90.70
46608;DHT22;32330;51.936;7.184;2023-04-03T04:13:33;1.60;91.00
46608;DHT22;32330;51.936;7.184;2023-04-03T04:16:01;1.60;91.20
46608;DHT22;32330;51.936;7.184;2023-04-03T04:18:29;1.50;91.40
46608;DHT22;32330;51.936;7.184;2023-04-03T04:20:57;1.50;92.60
46608;DHT22;32330;51.936;7.184;2023-04-03T04:23:25;1.50;92.90
46608;DHT22;32330;51.936;7.184;2023-04-03T04:25:52;1.40;93.40
46608;DHT22;32330;51.936;7.184;2023-04-03T04:28:20;1.40;92.90
46608;DHT22;32330;51.936;7.184;2023-04-03T04:30:49;1.40;93.50
46608;DHT22;32330;51.936;7.184;2023-04-03T04:33:18;1.40;94.10
46608;DHT22;32330;51.936;7.184;2023-04-03T04:35:47;1.30;94.20
46608;DHT22;32330;51.936;7.184;2023-04-03T04:38:17;1.30;94.40
46608;DHT22;32330;51.936;7.184;2023-04-03T04:40:44;1.30;94.70
46608;DHT22;32330;51.936;7.184;2023-04-03T04:43:12;1.20;95.00
46608;DHT22;32330;51.936;7.184;2023-04-03T04:45:41;1.20;94.90
46608;DHT22;32330;51.936;7.184;2023-04-03T04:48:09;1.20;95.40
46608;DHT22;32330;51.936;7.184;2023-04-03T04:50:36;1.20;95.20
46608;DHT22;32330;51.936;7.184;2023-04-03T04:53:03;1.10;95.00
46608;DHT22;32330;51.936;7.184;2023-04-03T04:55:32;1.10;95.80
46608;DHT22;32330;51.936;7.184;2023-04-03T04:57:59;1.10;96.40
46608;DHT22;32330;51.936;7.184;2023-04-03T05:00:26;1.10;95.80
46608;DHT22;32330;51.936;7.184;2023-04-03T05:02:54;1.10;96.20
46608;DHT22;32330;51.936;7.184;2023-04-03T05:05:21;1.10;95.90
46608;DHT22;32330;51.936;7.184;2023-04-03T05:07:48;1.10;95.80
46608;DHT22;32330;51.936;7.184;2023-04-03T05:10:16;1.10;95.40
46608;DHT22;32330;51.936;7.184;2023-04-03T05:12:46;1.10;95.00
46608;DHT22;32330;51.936;7.184;2023-04-03T05:15:13;1.10;94.80
46608;DHT22;32330;51.936;7.184;2023-04-03T05:17:41;1.00;94.50
46608;DHT22;32330;51.936;7.184;2023-04-03T05:20:11;1.00;95.30
46608;DHT22;32330;51.936;7.184;2023-04-03T05:22:39;1.00;95.30
46608;DHT22;32330;51.936;7.184;2023-04-03T05:25:09;1.00;95.40
46608;DHT22;32330;51.936;7.184;2023-04-03T05:27:37;1.00;96.00
46608;DHT22;32330;51.936;7.184;2023-04-03T05:30:07;1.00;95.20
46608;DHT22;32330;51.936;7.184;2023-04-03T05:32:35;1.00;95.30
46608;DHT22;32330;51.936;7.184;2023-04-03T05:35:14;1.00;94.30
46608;DHT22;32330;51.936;7.184;2023-04-03T05:37:42;1.00;94.00
46608;DHT22;32330;51.936;7.184;2023-04-03T05:40:10;1.00;93.80
46608;DHT22;32330;51.936;7.184;2023-04-03T05:42:40;1.00;94.40
46608;DHT22;32330;51.936;7.184;2023-04-03T05:45:10;1.00;94.10
46608;DHT22;32330;51.936;7.184;2023-04-03T05:47:37;1.00;93.50
46608;DHT22;32330;51.936;7.184;2023-04-03T05:50:06;1.10;93.80
46608;DHT22;32330;51.936;7.184;2023-04-03T05:52:37;1.10;91.60
46608;DHT22;32330;51.936;7.184;2023-04-03T05:55:05;1.10;91.80
46608;DHT22;32330;51.936;7.184;2023-04-03T05:57:34;1.10;91.50
46608;DHT22;32330;51.936;7.184;2023-04-03T06:00:02;1.10;90.90
46608;DHT22;32330;51.936;7.184;2023-04-03T06:02:41;1.20;89.50
46608;DHT22;32330;51.936;7.184;2023-04-03T06:05:13;1.20;90.40
46608;DHT22;32330;51.936;7.184;2023-04-03T06:07:40;1.20;87.00
46608;DHT22;32330;51.936;7.184;2023-04-03T06:10:11;1.30;83.40
46608;DHT22;32330;51.936;7.184;2023-04-03T06:12:38;1.30;86.60
46608;DHT22;32330;51.936;7.184;2023-04-03T06:15:06;1.40;86.40
46608;DHT22;32330;51.936;7.184;2023-04-03T06:17:33;1.40;82.90
46608;DHT22;32330;51.936;7.184;2023-04-03T06:20:02;1.50;78.10
46608;DHT22;32330;51.936;7.184;2023-04-03T06:22:30;1.50;73.80
46608;DHT22;32330;51.936;7.184;2023-04-03T06:24:57;1.60;71.80
46608;DHT22;32330;51.936;7.184;2023-04-03T06:27:24;1.70;64.90
46608;DHT22;32330;51.936;7.184;2023-04-03T06:29:51;1.80;62.40
46608;DHT22;32330;51.936;7.184;2023-04-03T06:32:18;1.80;58.30
46608;DHT22;32330;51.936;7.184;2023-04-03T06:34:45;1.80;44.10
46608;DHT22;32330;51.936;7.184;2023-04-03T06:37:15;1.90;41.30
46608;DHT22;32330;51.936;7.184;2023-04-03T06:39:43;1.90;31.30
46608;DHT22;32330;51.936;7.184;2023-04-03T06:42:10;2.00;37.70
46608;DHT22;32330;51.936;7.184;2023-04-03T06:44:46;2.10;32.50
46608;DHT22;32330;51.936;7.184;2023-04-03T06:47:14;2.20;30.20
46608;DHT22;32330;51.936;7.184;2023-04-03T06:49:41;2.30;27.20
46608;DHT22;32330;51.936;7.184;2023-04-03T06:52:09;2.40;19.60
46608;DHT22;32330;51.936;7.184;2023-04-03T06:54:39;2.40;13.60
46608;DHT22;32330;51.936;7.184;2023-04-03T06:57:06;2.50;1.90
46608;DHT22;32330;51.936;7.184;2023-04-03T06:59:34;2.50;1.00
46608;DHT22;32330;51.936;7.184;2023-04-03T07:02:02;2.60;1.00
46608;DHT22;32330;51.936;7.184;2023-04-03T07:04:29;2.60;1.00
46608;DHT22;32330;51.936;7.184;2023-04-03T07:06:56;2.70;1.00
46608;DHT22;32330;51.936;7.184;2023-04-03T07:09:23;2.80;1.00
46608;DHT22;32330;51.936;7.184;2023-04-03T07:11:51;2.80;1.00
46608;DHT22;32330;51.936;7.184;2023-04-03T07:14:18;2.90;1.00
46608;DHT22;32330;51.936;7.184;2023-04-03T07:16:45;3.00;1.00
46608;DHT22;32330;51.936;7.184;2023-04-03T07:19:12;3.10;1.00
46608;DHT22;32330;51.936;7.184;2023-04-03T07:21:40;3.20;1.00
46608;DHT22;32330;51.936;7.184;2023-04-03T07:24:07;3.20;1.00
46608;DHT22;32330;51.936;7.184;2023-04-03T07:26:34;3.30;1.00
46608;DHT22;32330;51.936;7.184;2023-04-03T07:29:03;3.30;99.90
46608;DHT22;32330;51.936;7.184;2023-04-03T07:31:30;3.40;1.00
46608;DHT22;32330;51.936;7.184;2023-04-03T07:33:57;3.50;1.00
46608;DHT22;32330;51.936;7.184;2023-04-03T07:36:24;3.70;99.90
46608;DHT22;32330;51.936;7.184;2023-04-03T07:38:51;3.80;99.90
46608;DHT22;32330;51.936;7.184;2023-04-03T07:41:19;4.00;99.90
46608;DHT22;32330;51.936;7.184;2023-04-03T07:43:46;4.10;99.90
46608;DHT22;32330;51.936;7.184;2023-04-03T07:46:16;4.10;99.90
46608;DHT22;32330;51.936;7.184;2023-04-03T07:48:44;4.10;99.90
46608;DHT22;32330;51.936;7.184;2023-04-03T07:51:11;4.20;99.90
46608;DHT22;32330;51.936;7.184;2023-04-03T07:53:39;4.40;99.90
46608;DHT22;32330;51.936;7.184;2023-04-03T07:56:07;4.40;99.90
46608;DHT22;32330;51.936;7.184;2023-04-03T07:58:35;4.50;37.40
46608;DHT22;32330;51.936;7.184;2023-04-03T08:01:02;4.70;76.50
46608;DHT22;32330;51.936;7.184;2023-04-03T08:03:31;4.80;1.00
46608;DHT22;32330;51.936;7.184;2023-04-03T08:06:02;4.90;99.90
46608;DHT22;32330;51.936;7.184;2023-04-03T08:08:30;5.00;94.60
46608;DHT22;32330;51.936;7.184;2023-04-03T08:10:59;5.00;99.90
46608;DHT22;32330;51.936;7.184;2023-04-03T08:13:29;5.20;99.90
46608;DHT22;32330;51.936;7.184;2023-04-03T08:15:56;5.30;99.90
46608;DHT22;32330;51.936;7.184;2023-04-03T08:18:24;5.40;99.90
46608;DHT22;32330;51.936;7.184;2023-04-03T08:20:53;5.50;99.90
46608;DHT22;32330;51.936;7.184;2023-04-03T08:23:20;5.60;99.90
46608;DHT22;32330;51.936;7.184;2023-04-03T08:25:47;5.60;2.80
46608;DHT22;32330;51.936;7.184;2023-04-03T08:28:14;5.80;91.80
46608;DHT22;32330;51.936;7.184;2023-04-03T08:30:42;6.00;99.90
46608;DHT22;32330;51.936;7.184;2023-04-03T08:33:09;6.10;99.90
46608;DHT22;32330;51.936;7.184;2023-04-03T08:35:39;6.10;99.90
46608;DHT22;32330;51.936;7.184;2023-04-03T08:38:08;6.20;99.90
46608;DHT22;32330;51.936;7.184;2023-04-03T08:40:35;6.40;99.90
46608;DHT22;32330;51.936;7.184;2023-04-03T08:43:22;6.40;94.80
46608;DHT22;32330;51.936;7.184;2023-04-03T08:45:55;6.30;99.90
46608;DHT22;32330;51.936;7.184;2023-04-03T08:48:29;6.40;99.90
46608;DHT22;32330;51.936;7.184;2023-04-03T08:51:00;6.60;99.90
46608;DHT22;32330;51.936;7.184;2023-04-03T08:53:32;6.60;89.20
46608;DHT22;32330;51.936;7.184;2023-04-03T08:56:04;6.70;1.00
46608;DHT22;32330;51.936;7.184;2023-04-03T08:58:41;6.80;99.90
46608;DHT22;32330;51.936;7.184;2023-04-03T09:01:18;6.80;99.90
46608;DHT22;32330;51.936;7.184;2023-04-03T09:03:45;7.00;47.90
46608;DHT22;32330;51.936;7.184;2023-04-03T09:06:15;7.10;61.60
46608;DHT22;32330;51.936;7.184;2023-04-03T09:08:48;7.30;36.10
46608;DHT22;32330;51.936;7.184;2023-04-03T09:11:20;7.30;25.30
46608;DHT22;32330;51.936;7.184;2023-04-03T09:13:54;7.30;1.00
46608;DHT22;32330;51.936;7.184;2023-04-03T09:16:47;7.40;99.90
46608;DHT22;32330;51.936;7.184;2023-04-03T09:19:21;7.50;99.90
46608;DHT22;32330;51.936;7.184;2023-04-03T09:21:49;7.60;99.90
46608;DHT22;32330;51.936;7.184;2023-04-03T09:24:17;7.70;99.90
46608;DHT22;32330;51.936;7.184;2023-04-03T09:26:50;7.70;99.90
46608;DHT22;32330;51.936;7.184;2023-04-03T09:29:20;7.80;99.90
46608;DHT22;32330;51.936;7.184;2023-04-03T09:31:49;8.00;99.90
46608;DHT22;32330;51.936;7.184;2023-04-03T09:34:20;8.20;99.90
46608;DHT22;32330;51.936;7.184;2023-04-03T09:36:51;8.20;99.90
46608;DHT22;32330;51.936;7.184;2023-04-03T09:39:21;8.20;99.90
46608;DHT22;32330;51.936;7.184;2023-04-03T09:41:57;8.30;99.90
46608;DHT22;32330;51.936;7.184;2023-04-03T09:44:26;8.40;99.90
46608;DHT22;32330;51.936;7.184;2023-04-03T09:46:53;8.40;99.90
46608;DHT22;32330;51.936;7.184;2023-04-03T09:49:21;8.30;99.90
46608;DHT22;32330;51.936;7.184;2023-04-03T09:51:48;8.60;99.90
46608;DHT22;32330;51.936;7.184;2023-04-03T09:54:33;8.70;99.90
46608;DHT22;32330;51.936;7.184;2023-04-03T09:57:06;8.60;90.10
46608;DHT22;32330;51.936;7.184;2023-04-03T09:59:33;8.80;99.90
46608;DHT22;32330;51.936;7.184;2023-04-03T10:02:03;9.00;99.90
46608;DHT22;32330;51.936;7.184;2023-04-03T10:04:39;9.20;99.90
46608;DHT22;32330;51.936;7.184;2023-04-03T10:07:32;9.40;99.90
46608;DHT22;32330;51.936;7.184;2023-04-03T10:10:03;9.10;38.20
46608;DHT22;32330;51.936;7.184;2023-04-03T10:12:30;9.00;1.00
46608;DHT22;32330;51.936;7.184;2023-04-03T10:14:58;9.10;1.00
46608;DHT22;32330;51.936;7.184;2023-04-03T10:17:40;8.90;1.00
46608;DHT22;32330;51.936;7.184;2023-04-03T10:20:26;9.00;99.90
46608;DHT22;32330;51.936;7.184;2023-04-03T10:23:02;9.20;99.90
46608;DHT22;32330;51.936;7.184;2023-04-03T10:25:35;9.50;99.90
46608;DHT22;32330;51.936;7.184;2023-04-03T10:28:08;9.40;99.90
46608;DHT22;32330;51.936;7.184;2023-04-03T10:30:44;9.50;99.90
46608;DHT22;32330;51.936;7.184;2023-04-03T10:36:07;9.80;99.90
46608;DHT22;32330;51.936;7.184;2023-04-03T10:38:43;9.80;99.90
46608;DHT22;32330;51.936;7.184;2023-04-03T10:41:17;10.10;99.90
46608;DHT22;32330;51.936;7.184;2023-04-03T10:43:53;10.00;99.90
46608;DHT22;32330;51.936;7.184;2023-04-03T10:46:27;10.20;99.90
46608;DHT22;32330;51.936;7.184;2023-04-03T10:49:10;9.90;99.90
46608;DHT22;32330;51.936;7.184;2023-04-03T10:51:44;10.10;99.90
46608;DHT22;32330;51.936;7.184;2023-04-03T10:54:15;10.30;99.90
46608;DHT22;32330;51.936;7.184;2023-04-03T10:56:47;10.30;99.90
46608;DHT22;32330;51.936;7.184;2023-04-03T10:59:21;10.10;99.90
46608;DHT22;32330;51.936;7.184;2023-04-03T11:01:52;10.50;99.90
46608;DHT22;32330;51.936;7.184;2023-04-03T11:04:21;10.50;99.90
46608;DHT22;32330;51.936;7.184;2023-04-03T11:06:55;10.50;99.90
46608;DHT22;32330;51.936;7.184;2023-04-03T11:09:27;10.60;99.90
46608;DHT22;32330;51.936;7.184;2023-04-03T11:12:01;10.40;99.90
46608;DHT22;32330;51.936;7.184;2023-04-03T11:14:31;10.00;99.90
46608;DHT22;32330;51.936;7.184;2023-04-03T11:17:05;10.20;99.90
46608;DHT22;32330;51.936;7.184;2023-04-03T11:19:41;10.10;99.90
46608;DHT22;32330;51.936;7.184;2023-04-03T11:22:14;10.20;99.90
46608;DHT22;32330;51.936;7.184;2023-04-03T11:24:53;10.40;99.90
46608;DHT22;32330;51.936;7.184;2023-04-03T11:27:25;10.50;99.90
46608;DHT22;32330;51.936;7.184;2023-04-03T11:29:57;10.30;99.90
46608;DHT22;32330;51.936;7.184;2023-04-03T11:32:34;10.40;99.90
46608;DHT22;32330;51.936;7.184;2023-04-03T11:35:09;10.50;99.90
46608;DHT22;32330;51.936;7.184;2023-04-03T11:37:39;10.70;99.90
46608;DHT22;32330;51.936;7.184;2023-04-03T11:40:20;10.90;99.90
46608;DHT22;32330;51.936;7.184;2023-04-03T11:42:52;10.80;99.90
46608;DHT22;32330;51.936;7.184;2023-04-03T11:45:33;11.00;99.90
46608;DHT22;32330;51.936;7.184;2023-04-03T11:48:04;10.90;99.90
46608;DHT22;32330;51.936;7.184;2023-04-03T11:50:43;11.10;99.90
46608;DHT22;32330;51.936;7.184;2023-04-03T11:53:28;11.10;99.90
46608;DHT22;32330;51.936;7.184;2023-04-03T11:56:01;11.10;99.90
46608;DHT22;32330;51.936;7.184;2023-04-03T11:58:31;11.30;99.90
46608;DHT22;32330;51.936;7.184;2023-04-03T12:01:05;11.50;99.90
46608;DHT22;32330;51.936;7.184;2023-04-03T12:06:59;11.60;99.90
46608;DHT22;32330;51.936;7.184;2023-04-03T12:12:33;11.90;99.90
46608;DHT22;32330;51.936;7.184;2023-04-03T12:15:25;12.00;99.90
46608;DHT22;32330;51.936;7.184;2023-04-03T12:17:52;12.20;99.90
46608;DHT22;32330;51.936;7.184;2023-04-03T12:20:57;11.90;99.90
46608;DHT22;32330;51.936;7.184;2023-04-03T12:23:29;12.00;99.90
46608;DHT22;32330;51.936;7.184;2023-04-03T12:26:03;12.20;99.90
46608;DHT22;32330;51.936;7.184;2023-04-03T12:28:37;12.40;99.90
46608;DHT22;32330;51.936;7.184;2023-04-03T12:31:10;12.30;99.90
46608;DHT22;32330;51.936;7.184;2023-04-03T12:33:51;12.40;99.90
46608;DHT22;32330;51.936;7.184;2023-04-03T12:36:32;12.20;99.90
46608;DHT22;32330;51.936;7.184;2023-04-03T12:42:17;12.40;99.90
46608;DHT22;32330;51.936;7.184;2023-04-03T12:44:56;12.40;99.90
46608;DHT22;32330;51.936;7.184;2023-04-03T12:47:31;12.50;99.90
46608;DHT22;32330;51.936;7.184;2023-04-03T12:49:59;12.70;99.90
46608;DHT22;32330;51.936;7.184;2023-04-03T12:52:33;12.90;99.90
46608;DHT22;32330;51.936;7.184;2023-04-03T12:55:03;13.10;99.90
46608;DHT22;32330;51.936;7.184;2023-04-03T12:57:30;12.70;99.90
46608;DHT22;32330;51.936;7.184;2023-04-03T12:59:59;12.50;99.90
46608;DHT22;32330;51.936;7.184;2023-04-03T13:02:29;12.80;99.90
46608;DHT22;32330;51.936;7.184;2023-04-03T13:04:58;12.90;99.90
46608;DHT22;32330;51.936;7.184;2023-04-03T13:07:30;12.70;99.90
46608;DHT22;32330;51.936;7.184;2023-04-03T13:10:02;13.00;99.90
46608;DHT22;32330;51.936;7.184;2023-04-03T13:12:31;12.60;99.90
46608;DHT22;32330;51.936;7.184;2023-04-03T13:15:00;12.10;99.90
46608;DHT22;32330;51.936;7.184;2023-04-03T13:17:31;12.50;99.90
46608;DHT22;32330;51.936;7.184;2023-04-03T13:20:11;12.60;99.90
46608;DHT22;32330;51.936;7.184;2023-04-03T13:22:40;13.00;99.90
46608;DHT22;32330;51.936;7.184;2023-04-03T13:25:12;13.10;99.90
46608;DHT22;32330;51.936;7.184;2023-04-03T13:27:40;12.80;99.90
46608;DHT22;32330;51.936;7.184;2023-04-03T13:30:27;12.60;99.90
46608;DHT22;32330;51.936;7.184;2023-04-03T13:32:57;12.00;99.90
46608;DHT22;32330;51.936;7.184;2023-04-03T13:35:28;12.30;99.90
46608;DHT22;32330;51.936;7.184;2023-04-03T13:37:58;12.80;99.90
46608;DHT22;32330;51.936;7.184;2023-04-03T13:40:25;13.10;99.90
46608;DHT22;32330;51.936;7.184;2023-04-03T13:43:01;13.60;99.90
46608;DHT22;32330;51.936;7.184;2023-04-03T13:45:30;13.10;99.90
46608;DHT22;32330;51.936;7.184;2023-04-03T13:48:15;12.40;99.90
46608;DHT22;32330;51.936;7.184;2023-04-03T13:50:52;12.70;99.90
46608;DHT22;32330;51.936;7.184;2023-04-03T13:53:19;13.00;99.90
46608;DHT22;32330;51.936;7.184;2023-04-03T13:55:56;13.00;99.90
46608;DHT22;32330;51.936;7.184;2023-04-03T13:58:25;13.30;99.90
46608;DHT22;32330;51.936;7.184;2023-04-03T14:00:54;13.10;99.90
46608;DHT22;32330;51.936;7.184;2023-04-03T14:03:26;12.60;99.90
46608;DHT22;32330;51.936;7.184;2023-04-03T14:05:55;12.20;99.90
46608;DHT22;32330;51.936;7.184;2023-04-03T14:08:22;12.20;99.90
46608;DHT22;32330;51.936;7.184;2023-04-03T14:10:49;12.30;99.90
46608;DHT22;32330;51.936;7.184;2023-04-03T14:13:18;12.40;99.90
46608;DHT22;32330;51.936;7.184;2023-04-03T14:15:47;12.10;99.90
46608;DHT22;32330;51.936;7.184;2023-04-03T14:18:19;12.20;99.90
46608;DHT22;32330;51.936;7.184;2023-04-03T14:20:48;12.50;99.90
46608;DHT22;32330;51.936;7.184;2023-04-03T14:23:16;12.60;99.90
46608;DHT22;32330;51.936;7.184;2023-04-03T14:25:43;12.60;99.90
46608;DHT22;32330;51.936;7.184;2023-04-03T14:28:16;12.60;99.90
46608;DHT22;32330;51.936;7.184;2023-04-03T14:30:45;12.70;99.90
46608;DHT22;32330;51.936;7.184;2023-04-03T14:33:14;12.40;99.90
46608;DHT22;32330;51.936;7.184;2023-04-03T14:35:41;12.40;99.90
46608;DHT22;32330;51.936;7.184;2023-04-03T14:38:23;12.60;99.90
46608;DHT22;32330;51.936;7.184;2023-04-03T14:40:51;12.10;99.90
46608;DHT22;32330;51.936;7.184;2023-04-03T14:43:19;12.20;99.90
46608;DHT22;32330;51.936;7.184;2023-04-03T14:45:46;12.40;99.90
46608;DHT22;32330;51.936;7.184;2023-04-03T14:48:17;12.40;99.90
46608;DHT22;32330;51.936;7.184;2023-04-03T14:50:45;12.30;99.90
46608;DHT22;32330;51.936;7.184;2023-04-03T14:53:13;12.50;99.90
46608;DHT22;32330;51.936;7.184;2023-04-03T14:55:43;12.40;99.90
46608;DHT22;32330;51.936;7.184;2023-04-03T14:58:13;12.60;99.90
46608;DHT22;32330;51.936;7.184;2023-04-03T15:00:41;12.70;99.90
46608;DHT22;32330;51.936;7.184;2023-04-03T15:03:13;12.70;99.90
46608;DHT22;32330;51.936;7.184;2023-04-03T15:05:41;12.70;99.60
46608;DHT22;32330;51.936;7.184;2023-04-03T15:08:16;12.80;99.90
46608;DHT22;32330;51.936;7.184;2023-04-03T15:10:45;12.80;99.90
46608;DHT22;32330;51.936;7.184;2023-04-03T15:13:12;12.90;99.90
46608;DHT22;32330;51.936;7.184;2023-04-03T15:15:39;12.50;98.60
46608;DHT22;32330;51.936;7.184;2023-04-03T15:18:09;12.50;91.80
46608;DHT22;32330;51.936;7.184;2023-04-03T15:20:37;12.60;91.90
46608;DHT22;32330;51.936;7.184;2023-04-03T15:23:04;12.50;96.20
46608;DHT22;32330;51.936;7.184;2023-04-03T15:25:32;12.20;96.90
46608;DHT22;32330;51.936;7.184;2023-04-03T15:28:00;11.50;83.20
46608;DHT22;32330;51.936;7.184;2023-04-03T15:30:27;11.30;90.60
46608;DHT22;32330;51.936;7.184;2023-04-03T15:32:54;11.40;94.00
46608;DHT22;32330;51.936;7.184;2023-04-03T15:35:21;11.80;96.50
46608;DHT22;32330;51.936;7.184;2023-04-03T15:37:48;12.10;92.40
46608;DHT22;32330;51.936;7.184;2023-04-03T15:40:16;11.70;81.90
46608;DHT22;32330;51.936;7.184;2023-04-03T15:42:43;11.90;80.70
46608;DHT22;32330;51.936;7.184;2023-04-03T15:45:12;12.20;96.50
46608;DHT22;32330;51.936;7.184;2023-04-03T15:47:39;12.00;90.00
46608;DHT22;32330;51.936;7.184;2023-04-03T15:50:06;12.00;92.70
46608;DHT22;32330;51.936;7.184;2023-04-03T15:52:33;12.00;91.10
46608;DHT22;32330;51.936;7.184;2023-04-03T15:55:01;12.00;90.80
46608;DHT22;32330;51.936;7.184;2023-04-03T15:57:28;12.00;91.70
46608;DHT22;32330;51.936;7.184;2023-04-03T15:59:55;11.90;78.90
46608;DHT22;32330;51.936;7.184;2023-04-03T16:02:23;11.70;78.20
46608;DHT22;32330;51.936;7.184;2023-04-03T16:04:53;11.70;81.70
46608;DHT22;32330;51.936;7.184;2023-04-03T16:07:21;11.40;60.70
46608;DHT22;32330;51.936;7.184;2023-04-03T16:09:48;11.40;63.20
46608;DHT22;32330;51.936;7.184;2023-04-03T16:12:15;11.50;71.90
46608;DHT22;32330;51.936;7.184;2023-04-03T16:14:42;11.60;83.00
46608;DHT22;32330;51.936;7.184;2023-04-03T16:17:11;11.30;73.60
46608;DHT22;32330;51.936;7.184;2023-04-03T16:19:39;11.30;70.80
46608;DHT22;32330;51.936;7.184;2023-04-03T16:22:06;11.30;83.20
46608;DHT22;32330;51.936;7.184;2023-04-03T16:24:33;11.10;74.10
46608;DHT22;32330;51.936;7.184;2023-04-03T16:27:01;11.30;86.60
46608;DHT22;32330;51.936;7.184;2023-04-03T16:29:28;11.30;76.90
46608;DHT22;32330;51.936;7.184;2023-04-03T16:31:56;11.10;74.30
46608;DHT22;32330;51.936;7.184;2023-04-03T16:34:24;11.20;88.20
46608;DHT22;32330;51.936;7.184;2023-04-03T16:36:53;11.30;90.40
46608;DHT22;32330;51.936;7.184;2023-04-03T16:39:20;11.30;87.60
46608;DHT22;32330;51.936;7.184;2023-04-03T16:41:47;11.10;86.20
46608;DHT22;32330;51.936;7.184;2023-04-03T16:44:14;11.00;88.80
46608;DHT22;32330;51.936;7.184;2023-04-03T16:46:41;10.60;67.60
46608;DHT22;32330;51.936;7.184;2023-04-03T16:49:08;10.80;85.80
46608;DHT22;32330;51.936;7.184;2023-04-03T16:51:35;10.70;79.90
46608;DHT22;32330;51.936;7.184;2023-04-03T16:54:03;10.80;90.30
46608;DHT22;32330;51.936;7.184;2023-04-03T16:56:32;10.60;69.40
46608;DHT22;32330;51.936;7.184;2023-04-03T16:58:59;10.50;76.70
46608;DHT22;32330;51.936;7.184;2023-04-03T17:01:26;10.40;74.60
46608;DHT22;32330;51.936;7.184;2023-04-03T17:03:52;10.40;82.80
46608;DHT22;32330;51.936;7.184;2023-04-03T17:06:20;10.40;84.00
46608;DHT22;32330;51.936;7.184;2023-04-03T17:08:51;10.20;77.40
46608;DHT22;32330;51.936;7.184;2023-04-03T17:11:29;10.20;81.30
46608;DHT22;32330;51.936;7.184;2023-04-03T17:13:56;10.10;80.40
46608;DHT22;32330;51.936;7.184;2023-04-03T17:16:24;10.00;77.80
46608;DHT22;32330;51.936;7.184;2023-04-03T17:18:52;9.90;69.90
46608;DHT22;32330;51.936;7.184;2023-04-03T17:21:19;9.80;73.70
46608;DHT22;32330;51.936;7.184;2023-04-03T17:23:49;9.60;63.60
46608;DHT22;32330;51.936;7.184;2023-04-03T17:26:18;9.40;58.30
46608;DHT22;32330;51.936;7.184;2023-04-03T17:28:47;9.40;61.40
46608;DHT22;32330;51.936;7.184;2023-04-03T17:31:14;9.30;56.70
46608;DHT22;32330;51.936;7.184;2023-04-03T17:33:41;9.40;75.20
46608;DHT22;32330;51.936;7.184;2023-04-03T17:36:08;9.30;75.30
46608;DHT22;32330;51.936;7.184;2023-04-03T17:38:35;9.20;81.10
46608;DHT22;32330;51.936;7.184;2023-04-03T17:41:05;9.10;80.10
46608;DHT22;32330;51.936;7.184;2023-04-03T17:43:34;9.00;79.20
46608;DHT22;32330;51.936;7.184;2023-04-03T17:46:04;8.90;82.90
46608;DHT22;32330;51.936;7.184;2023-04-03T17:48:32;8.90;91.80
46608;DHT22;32330;51.936;7.184;2023-04-03T17:51:03;8.90;86.20
46608;DHT22;32330;51.936;7.184;2023-04-03T17:53:30;8.70;92.30
46608;DHT22;32330;51.936;7.184;2023-04-03T17:55:57;8.80;97.30
46608;DHT22;32330;51.936;7.184;2023-04-03T17:58:24;8.80;98.00
46608;DHT22;32330;51.936;7.184;2023-04-03T18:00:51;8.70;99.90
46608;DHT22;32330;51.936;7.184;2023-04-03T18:03:20;8.50;95.80
46608;DHT22;32330;51.936;7.184;2023-04-03T18:05:47;8.50;99.90
46608;DHT22;32330;51.936;7.184;2023-04-03T18:08:15;8.40;99.90
46608;DHT22;32330;51.936;7.184;2023-04-03T18:10:43;8.20;99.90
46608;DHT22;32330;51.936;7.184;2023-04-03T18:13:10;8.20;99.90
46608;DHT22;32330;51.936;7.184;2023-04-03T18:15:37;8.20;99.90
46608;DHT22;32330;51.936;7.184;2023-04-03T18:18:10;8.10;99.90
46608;DHT22;32330;51.936;7.184;2023-04-03T18:20:38;8.10;99.90
46608;DHT22;32330;51.936;7.184;2023-04-03T18:23:05;8.00;99.90
46608;DHT22;32330;51.936;7.184;2023-04-03T18:25:32;7.90;99.90
46608;DHT22;32330;51.936;7.184;2023-04-03T18:28:00;7.80;99.90
46608;DHT22;32330;51.936;7.184;2023-04-03T18:30:31;7.80;99.90
46608;DHT22;32330;51.936;7.184;2023-04-03T18:32:58;7.70;99.90
46608;DHT22;32330;51.936;7.184;2023-04-03T18:35:26;7.60;99.90
46608;DHT22;32330;51.936;7.184;2023-04-03T18:37:54;7.50;99.90
46608;DHT22;32330;51.936;7.184;2023-04-03T18:40:21;7.50;99.90
46608;DHT22;32330;51.936;7.184;2023-04-03T18:42:48;7.40;99.90
46608;DHT22;32330;51.936;7.184;2023-04-03T18:45:18;7.30;99.90
46608;DHT22;32330;51.936;7.184;2023-04-03T18:47:47;7.30;99.90
46608;DHT22;32330;51.936;7.184;2023-04-03T18:50:14;7.30;99.90
46608;DHT22;32330;51.936;7.184;2023-04-03T18:52:41;7.20;99.90
46608;DHT22;32330;51.936;7.184;2023-04-03T18:55:10;7.10;99.90
46608;DHT22;32330;51.936;7.184;2023-04-03T18:57:38;7.00;99.90
46608;DHT22;32330;51.936;7.184;2023-04-03T19:00:06;6.90;99.90
46608;DHT22;32330;51.936;7.184;2023-04-03T19:02:34;6.90;99.90
46608;DHT22;32330;51.936;7.184;2023-04-03T19:05:01;6.80;99.90
46608;DHT22;32330;51.936;7.184;2023-04-03T19:07:29;6.70;99.90
46608;DHT22;32330;51.936;7.184;2023-04-03T19:09:56;6.60;99.90
46608;DHT22;32330;51.936;7.184;2023-04-03T19:12:24;6.50;99.90
46608;DHT22;32330;51.936;7.184;2023-04-03T19:14:51;6.50;99.90
46608;DHT22;32330;51.936;7.184;2023-04-03T19:17:18;6.40;99.90
46608;DHT22;32330;51.936;7.184;2023-04-03T19:19:45;6.30;1.00
46608;DHT22;32330;51.936;7.184;2023-04-03T19:22:12;6.30;1.00
46608;DHT22;32330;51.936;7.184;2023-04-03T19:24:39;6.20;1.00
46608;DHT22;32330;51.936;7.184;2023-04-03T19:27:06;6.10;1.00
46608;DHT22;32330;51.936;7.184;2023-04-03T19:29:34;6.10;19.40
46608;DHT22;32330;51.936;7.184;2023-04-03T19:32:01;6.00;77.10
46608;DHT22;32330;51.936;7.184;2023-04-03T19:34:28;5.90;99.90
46608;DHT22;32330;51.936;7.184;2023-04-03T19:36:55;5.90;99.90
46608;DHT22;32330;51.936;7.184;2023-04-03T19:39:22;5.80;99.90
46608;DHT22;32330;51.936;7.184;2023-04-03T19:41:49;5.70;99.90
46608;DHT22;32330;51.936;7.184;2023-04-03T19:44:16;5.70;99.90
46608;DHT22;32330;51.936;7.184;2023-04-03T19:46:44;5.60;99.90
46608;DHT22;32330;51.936;7.184;2023-04-03T19:49:11;5.60;99.90
46608;DHT22;32330;51.936;7.184;2023-04-03T19:51:38;5.50;99.90
46608;DHT22;32330;51.936;7.184;2023-04-03T19:54:05;5.40;66.00